Time;durP1;ratioP1;P1;durP2;ratioP2;P2;SDS_P1;SDS_P2;PMS_P1;PMS_P2;Temp;Humidity;BMP_temperature;BMP_pressure;BME280_temperature;BME280_humidity;BME280_pressure;Samples;Min_cycle;Max_cycle;Signal;HPM_P1;HPM_P2
2023/10/11 00:08:27;;;;;;;12.85;6.00;;;;;;;16.75;47.52;100071.06;10330786;28;20241;-68
2023/10/11 00:13:32;;;;;;;10.77;5.60;;;;;;;16.05;48.71;100106.91;10342734;28;20708;-68
2023/10/11 00:18:37;;;;;;;10.97;5.77;;;;;;;15.92;49.06;100077.25;10331160;28;20309;-68
2023/10/11 00:23:41;;;;;;;12.73;5.93;;;;;;;16.64;48.14;100019.59;10393163;28;20705;-67
2023/10/11 00:28:43;;;;;;;9.03;5.27;;;;;;;16.42;48.51;100033.44;10396520;28;20593;-67
2023/10/11 00:33:47;;;;;;;9.57;4.87;;;;;;;15.51;50.20;100075.69;10347677;28;20526;-67
2023/10/11 00:38:51;;;;;;;12.70;5.43;;;;;;;15.85;50.11;99996.31;10355914;28;20209;-67
2023/10/11 00:43:53;;;;;;;13.90;5.47;;;;;;;15.51;50.26;100046.84;10335856;28;20249;-67
2023/10/11 00:49:08;;;;;;;11.13;5.30;;;;;;;14.87;51.70;100044.84;10342245;28;20237;-67
2023/10/11 00:54:15;;;;;;;10.23;5.67;;;;;;;14.55;52.01;100106.50;10342525;28;20245;-67
2023/10/11 00:59:21;;;;;;;10.00;5.70;;;;;;;15.07;51.77;100016.00;10350621;28;20632;-68
2023/10/11 01:04:25;;;;;;;13.07;6.27;;;;;;;14.96;51.94;100038.19;10344862;28;20237;-67
2023/10/11 01:09:29;;;;;;;15.13;6.10;;;;;;;14.53;52.78;100035.84;10342770;28;20229;-67
2023/10/11 01:14:56;;;;;;;10.27;4.80;;;;;;;15.13;51.38;100004.41;10347101;28;20299;-67
2023/10/11 01:19:53;;;;;;;12.30;5.20;;;;;;;15.81;49.79;99951.13;10345529;28;20719;-67
2023/10/11 01:24:58;;;;;;;13.97;5.17;;;;;;;15.60;49.98;99998.09;10339616;28;20228;-67
2023/10/11 01:29:59;;;;;;;11.27;5.23;;;;;;;14.91;51.05;100038.84;10349867;28;20222;-67
2023/10/11 01:35:01;;;;;;;11.13;5.10;;;;;;;14.84;51.60;100018.28;10341610;28;20320;-67
2023/10/11 01:40:09;;;;;;;11.83;5.27;;;;;;;14.27;52.12;100056.28;10347822;28;20229;-67
2023/10/11 01:45:11;;;;;;;11.60;5.57;;;;;;;14.83;51.37;100005.84;10347590;28;20229;-67
2023/10/11 01:50:15;;;;;;;12.13;5.60;;;;;;;15.43;50.40;99951.84;10345172;28;20236;-67
2023/10/11 01:55:17;;;;;;;9.53;5.13;;;;;;;13.87;52.18;100084.84;10341300;28;20759;-67
2023/10/11 02:00:29;;;;;;;9.73;4.83;;;;;;;14.60;51.82;99961.28;10348470;28;20452;-65
2023/10/11 02:05:31;;;;;;;9.40;5.43;;;;;;;14.74;50.62;99978.25;10378469;28;20332;-65
2023/10/11 02:10:36;;;;;;;9.87;5.60;;;;;;;14.33;51.09;100039.31;10384789;28;20236;-65
2023/10/11 02:15:39;;;;;;;10.07;5.40;;;;;;;13.93;51.58;100078.69;10383277;28;20351;-64
2023/10/11 02:20:45;;;;;;;10.23;5.00;;;;;;;14.29;51.52;100053.38;10391156;28;20738;-65
2023/10/11 02:25:48;;;;;;;9.67;4.90;;;;;;;14.74;50.59;100022.19;10377295;28;20236;-65
2023/10/11 02:30:49;;;;;;;9.63;5.47;;;;;;;14.28;50.67;100119.03;10384978;28;20233;-65
2023/10/11 02:35:56;;;;;;;10.07;4.90;;;;;;;15.50;49.71;99983.16;10378208;28;20233;-64
2023/10/11 02:40:59;;;;;;;10.90;4.80;;;;;;;14.71;51.54;100006.47;10351014;28;20227;-65
2023/10/11 02:46:03;;;;;;;8.47;5.37;;;;;;;15.03;50.22;100044.44;10377679;28;20247;-65
2023/10/11 02:51:13;;;;;;;12.80;4.70;;;;;;;15.13;50.60;100019.72;10385954;28;20236;-65
2023/10/11 02:56:15;;;;;;;9.70;5.33;;;;;;;14.68;50.68;100078.78;10379492;28;20232;-65
2023/10/11 03:01:20;;;;;;;11.27;4.90;;;;;;;15.76;48.62;100008.41;10388408;28;20375;-64
2023/10/11 03:06:23;;;;;;;12.13;5.00;;;;;;;14.35;51.37;100060.66;10377491;28;20239;-65
2023/10/11 03:11:25;;;;;;;13.87;5.93;;;;;;;14.04;51.96;100067.34;10388546;28;20857;-65
2023/10/11 03:16:27;;;;;;;11.77;5.17;;;;;;;14.20;51.41;100072.41;10366744;28;20290;-65
2023/10/11 03:21:34;;;;;;;8.63;4.83;;;;;;;14.25;51.14;100066.41;10394992;28;20228;-65
2023/10/11 03:26:38;;;;;;;9.03;5.20;;;;;;;15.43;49.52;99959.94;10386552;28;20348;-65
2023/10/11 03:31:40;;;;;;;8.57;4.80;;;;;;;15.94;48.02;100031.16;10395641;28;20228;-65
2023/10/11 03:36:49;;;;;;;14.20;4.93;;;;;;;15.92;48.50;99995.47;10381342;28;20244;-65
2023/10/11 03:41:51;;;;;;;9.10;4.63;;;;;;;14.91;50.14;100075.69;10367009;28;20228;-65
2023/10/11 03:46:56;;;;;;;9.10;5.03;;;;;;;15.27;49.42;100044.81;10373943;28;20228;-65
2023/10/11 03:51:58;;;;;;;11.10;5.10;;;;;;;15.58;49.46;99986.69;10399216;28;20235;-65
2023/10/11 03:57:04;;;;;;;15.93;5.67;;;;;;;15.26;49.85;100038.59;10387746;28;20715;-65
2023/10/11 04:02:12;;;;;;;9.70;4.97;;;;;;;14.57;51.26;100055.94;10358191;28;20265;-65
2023/10/11 04:07:13;;;;;;;12.67;5.37;;;;;;;13.81;53.03;100070.34;10341358;28;20949;-65
2023/10/11 04:12:15;;;;;;;13.13;5.67;;;;;;;13.72;53.35;100039.28;10340174;28;20238;-65
2023/10/11 04:22:31;;;;;;;12.07;5.90;;;;;;;13.14;54.45;100069.84;10349324;28;20263;-65
2023/10/11 04:37:51;;;;;;;12.47;5.47;;;;;;;14.09;52.96;99948.38;10339095;28;20873;-65
2023/10/11 04:43:06;;;;;;;9.63;5.57;;;;;;;13.97;53.00;99975.84;10352356;28;20394;-65
2023/10/11 04:48:08;;;;;;;8.80;5.13;;;;;;;14.25;52.25;100001.00;10346943;28;20226;-65
2023/10/11 04:53:17;;;;;;;14.33;5.07;;;;;;;13.79;52.84;100067.03;10352788;28;20257;-65
2023/10/11 05:03:39;;;;;;;12.47;4.83;;;;;;;13.57;52.81;100063.59;10367937;28;20331;-65
2023/10/11 05:08:51;;;;;;;10.03;4.80;;;;;;;12.91;54.28;100086.22;10379336;28;20240;-65
2023/10/11 05:19:28;;;;;;;9.70;4.73;;;;;;;13.18;53.90;100032.72;10354289;28;20916;-65
2023/10/11 05:30:16;;;;;;;7.60;4.83;;;;;;;12.58;55.42;100042.94;10384081;28;20261;-65
2023/10/11 05:51:08;;;;;;;10.90;4.80;;;;;;;12.74;54.65;100082.97;10392659;28;20342;-66
2023/10/11 05:56:18;;;;;;;8.47;5.23;;;;;;;12.54;55.65;100043.31;10382410;28;20237;-65
2023/10/11 06:01:21;;;;;;;10.73;5.53;;;;;;;12.57;55.20;100082.38;10391346;28;20233;-65
2023/10/11 06:06:24;;;;;;;12.47;6.20;;;;;;;12.41;56.26;100039.63;10381782;28;20772;-65
2023/10/11 06:11:36;;;;;;;10.50;5.40;;;;;;;13.16;54.41;99989.91;10391705;28;20235;-65
2023/10/11 06:16:38;;;;;;;9.70;5.77;;;;;;;13.50;53.70;99966.78;10360403;28;20536;-66
2023/10/11 06:21:55;;;;;;;9.73;6.13;;;;;;;12.69;55.39;100074.66;10386524;28;20225;-65
2023/10/11 06:28:09;;;;;;;10.80;5.20;;;;;;;12.89;54.89;100067.59;10377227;28;20317;-65
2023/10/11 06:32:21;;;;;;;9.40;6.10;;;;;;;13.38;54.03;100019.41;10386539;28;20229;-65
2023/10/11 06:37:26;;;;;;;9.27;5.40;;;;;;;13.09;54.46;100081.22;10380436;28;20236;-65
2023/10/11 06:42:31;;;;;;;11.87;5.50;;;;;;;13.13;54.46;100045.88;10364261;28;20698;-65
2023/10/11 06:47:36;;;;;;;10.83;5.47;;;;;;;12.49;55.54;100134.31;10365214;28;20901;-65
2023/10/11 06:52:45;;;;;;;9.53;4.87;;;;;;;13.34;53.37;100139.09;10370470;28;20237;-65
2023/10/11 06:57:50;;;;;;;7.87;5.17;;;;;;;13.87;52.38;100091.06;10377773;28;20227;-65
2023/10/11 07:03:06;;;;;;;12.80;5.73;;;;;;;13.54;53.13;100139.25;10390351;28;20256;-65
2023/10/11 07:08:10;;;;;;;14.17;6.27;;;;;;;14.08;52.44;100108.19;10376063;28;20235;-65
2023/10/11 07:13:13;;;;;;;10.97;6.23;;;;;;;13.81;52.92;100154.53;10393460;28;20245;-65
2023/10/11 07:18:25;;;;;;;9.83;5.63;;;;;;;14.87;51.33;100058.31;10381361;28;20315;-65
2023/10/11 07:23:35;;;;;;;12.00;6.17;;;;;;;12.98;54.41;100178.44;10377725;28;20747;-66
2023/10/11 07:28:37;;;;;;;11.40;5.87;;;;;;;13.44;53.44;100118.91;10385651;28;20242;-65
2023/10/11 07:33:39;;;;;;;10.03;5.37;;;;;;;14.33;51.93;100074.31;10392792;28;21126;-65
2023/10/11 07:38:43;;;;;;;13.07;5.30;;;;;;;13.40;52.91;100186.72;10376462;28;20294;-65
2023/10/11 07:43:45;;;;;;;10.13;5.07;;;;;;;14.15;51.84;100126.00;10397583;28;20822;-66
2023/10/11 07:48:47;;;;;;;10.37;4.90;;;;;;;14.09;51.12;100156.41;10397235;28;20255;-66
2023/10/11 07:53:50;;;;;;;12.40;5.37;;;;;;;14.08;51.13;100168.19;10398727;28;20221;-65
2023/10/11 07:58:53;;;;;;;9.13;4.60;;;;;;;15.08;49.53;100163.22;10407504;28;20601;-65
2023/10/11 08:03:58;;;;;;;9.47;5.10;;;;;;;15.18;49.55;100152.00;10373667;28;20251;-65
2023/10/11 08:09:00;;;;;;;14.33;5.23;;;;;;;15.14;49.54;100194.72;10398442;28;20236;-66
2023/10/11 08:14:10;;;;;;;9.60;5.60;;;;;;;15.02;49.43;100241.34;10401240;28;20248;-65
2023/10/11 08:19:14;;;;;;;10.13;4.63;;;;;;;16.03;48.17;100172.94;10405931;28;20239;-65
2023/10/11 08:24:17;;;;;;;9.13;4.57;;;;;;;15.69;48.58;100240.44;10405591;28;20263;-65
2023/10/11 08:29:30;;;;;;;8.97;4.60;;;;;;;15.43;48.84;100257.38;10410298;28;20618;-66
2023/10/11 08:34:32;;;;;;;6.23;4.10;;;;;;;16.34;48.08;100147.13;10404850;28;20232;-66
2023/10/11 08:39:42;;;;;;;9.73;4.47;;;;;;;15.91;47.86;100263.66;10405308;28;20920;-65
2023/10/11 08:44:45;;;;;;;9.30;4.30;;;;;;;17.19;46.14;100182.00;10402296;28;20232;-66
2023/10/11 08:49:48;;;;;;;11.63;4.90;;;;;;;16.59;46.79;100222.84;10403850;28;20224;-66
2023/10/11 08:54:50;;;;;;;6.43;3.70;;;;;;;17.45;45.51;100226.97;10395217;28;20730;-66
2023/10/11 08:59:59;;;;;;;11.95;4.65;;;;;;;17.21;46.24;100214.22;10392286;28;20228;-66
2023/10/11 09:05:06;;;;;;;7.85;4.32;;;;;;;17.68;45.69;100212.03;10393535;28;20602;-65
2023/10/11 09:10:26;;;;;;;11.85;4.63;;;;;;;18.42;44.92;100125.44;10394342;28;20239;-65
2023/10/11 09:15:42;;;;;;;9.07;4.78;;;;;;;17.93;45.61;100179.53;10394360;28;20232;-66
2023/10/11 09:21:09;;;;;;;12.87;4.63;;;;;;;18.18;45.27;100187.59;10393501;28;20225;-66
2023/10/11 09:26:13;;;;;;;8.23;3.30;;;;;;;18.91;44.31;100175.06;10366014;28;20715;-66
2023/10/11 09:31:21;;;;;;;9.15;3.97;;;;;;;18.36;45.42;100213.91;10396188;28;20470;-65
2023/10/11 09:36:24;;;;;;;10.07;4.53;;;;;;;18.71;44.54;100188.88;10397290;28;20239;-66
2023/10/11 09:41:28;;;;;;;7.75;3.80;;;;;;;18.03;45.24;100282.72;10396487;28;20228;-66
2023/10/11 09:46:33;;;;;;;13.30;4.50;;;;;;;18.90;44.58;100178.81;10399166;28;20236;-66
2023/10/11 09:51:35;;;;;;;10.57;4.43;;;;;;;18.91;44.37;100206.75;10396410;28;20439;-66
2023/10/11 09:56:59;;;;;;;8.52;3.55;;;;;;;19.29;43.90;100195.56;10372255;28;20229;-66
2023/10/11 10:02:04;;;;;;;10.20;4.03;;;;;;;19.82;43.12;100183.00;10396768;28;20255;-65
2023/10/11 10:07:13;;;;;;;9.15;4.45;;;;;;;19.35;43.78;100246.19;10396546;28;20716;-66
2023/10/11 10:12:20;;;;;;;7.43;3.55;;;;;;;19.33;43.62;100225.75;10378297;28;20237;-65
2023/10/11 10:17:22;;;;;;;12.68;4.07;;;;;;;20.47;42.22;100200.19;10398062;28;20228;-66
2023/10/11 10:22:27;;;;;;;8.18;4.28;;;;;;;20.60;41.98;100174.63;10374492;28;20240;-65
2023/10/11 10:27:33;;;;;;;9.80;3.67;;;;;;;21.21;41.53;100177.66;10397800;28;20235;-66
2023/10/11 10:32:36;;;;;;;10.88;3.50;;;;;;;20.97;42.02;100160.63;10367703;28;20238;-66
2023/10/11 10:37:46;;;;;;;7.38;3.50;;;;;;;20.56;41.99;100246.84;10389604;28;20323;-66
2023/10/11 10:43:06;;;;;;;10.13;3.72;;;;;;;20.80;42.07;100201.41;10401928;28;20325;-66
2023/10/11 10:48:39;;;;;;;7.43;3.58;;;;;;;21.88;41.19;100126.94;10400512;28;20734;-66
2023/10/11 10:53:50;;;;;;;8.20;3.30;;;;;;;20.55;42.59;100178.06;10370290;28;20236;-65
2023/10/11 10:59:04;;;;;;;8.77;3.60;;;;;;;21.61;41.84;100108.63;10381438;28;20201;-66
2023/10/11 11:06:12;;;;;;;7.95;3.75;;;;;;;20.36;43.04;100082.28;10441397;27;21200;-66
2023/10/11 11:11:25;;;;;;;11.60;3.60;;;;;;;21.18;42.63;100051.09;10381115;28;20233;-66
2023/10/11 11:16:29;;;;;;;7.93;3.78;;;;;;;21.05;41.75;100108.56;10383476;28;20328;-66
2023/10/11 11:21:30;;;;;;;8.02;3.30;;;;;;;20.61;42.87;100135.50;10381194;28;22262;-66
2023/10/11 11:26:33;;;;;;;9.95;4.13;;;;;;;21.75;40.92;100070.97;10383487;28;20742;-66
2023/10/11 11:31:53;;;;;;;11.27;3.70;;;;;;;21.71;41.26;100076.09;10381268;28;20243;-66
2023/10/11 11:36:59;;;;;;;8.23;4.20;;;;;;;21.30;42.01;100094.53;10383736;28;20809;-66
2023/10/11 11:42:24;;;;;;;6.57;3.65;;;;;;;21.75;41.48;100069.06;10382133;28;20248;-66
2023/10/11 11:47:29;;;;;;;9.82;3.88;;;;;;;22.21;40.36;100070.72;10381632;28;20244;-66
2023/10/11 11:52:30;;;;;;;10.73;3.80;;;;;;;22.43;40.77;100025.16;10382847;28;20418;-66
2023/10/11 11:57:33;;;;;;;11.93;3.53;;;;;;;21.90;40.88;100032.22;10378441;28;20240;-67
2023/10/11 12:02:40;;;;;;;11.80;4.28;;;;;;;22.35;40.51;100031.06;10383656;28;20240;-66
2023/10/11 12:07:43;;;;;;;7.28;3.63;;;;;;;22.63;39.94;100013.63;10377967;28;20228;-66
2023/10/11 12:12:44;;;;;;;10.10;4.10;;;;;;;22.14;40.21;100040.94;10382522;28;20233;-66
2023/10/11 12:17:48;;;;;;;8.82;3.53;;;;;;;21.72;40.00;100038.78;10351537;28;20323;-66
2023/10/11 12:22:50;;;;;;;7.72;3.50;;;;;;;21.93;40.13;100001.72;10351306;28;20232;-66
2023/10/11 12:27:53;;;;;;;7.85;3.38;;;;;;;22.29;39.75;99997.50;10348592;28;20367;-66
2023/10/11 12:32:55;;;;;;;8.57;3.38;;;;;;;22.21;39.80;99984.31;10353623;28;22052;-66
2023/10/11 12:38:00;;;;;;;10.90;3.63;;;;;;;22.19;39.39;100000.13;10355268;28;20233;-66
2023/10/11 12:43:06;;;;;;;8.88;3.50;;;;;;;22.74;39.18;99959.16;10346350;28;20226;-66
2023/10/11 12:48:11;;;;;;;6.20;3.50;;;;;;;22.99;38.93;99942.94;10354617;28;20221;-66
2023/10/11 12:53:13;;;;;;;7.00;3.42;;;;;;;22.75;38.98;99964.34;10349340;28;20298;-66
2023/10/11 12:58:16;;;;;;;7.68;4.40;;;;;;;22.51;39.36;99966.63;10354902;28;20249;-66
2023/10/11 13:03:25;;;;;;;12.18;3.58;;;;;;;23.77;37.95;99903.16;10350522;28;20236;-66
2023/10/11 13:08:28;;;;;;;7.85;3.60;;;;;;;23.37;38.33;99924.63;10352209;28;20237;-66
2023/10/11 13:13:30;;;;;;;9.27;4.00;;;;;;;22.99;38.24;99923.84;10353139;28;20237;-66
2023/10/11 13:18:37;;;;;;;9.20;3.78;;;;;;;23.13;38.52;99921.53;10351196;28;20264;-66
2023/10/11 13:23:43;;;;;;;7.78;3.58;;;;;;;22.83;38.32;99922.16;10348597;28;20443;-66
2023/10/11 13:28:53;;;;;;;13.07;3.83;;;;;;;23.06;38.25;99882.72;10350066;28;20222;-67
2023/10/11 13:33:55;;;;;;;6.60;3.17;;;;;;;22.04;39.81;99899.16;10347346;28;20703;-67
2023/10/11 13:38:57;;;;;;;11.38;3.90;;;;;;;22.19;39.01;99902.00;10350402;28;20372;-67
2023/10/11 13:44:00;;;;;;;13.45;3.25;;;;;;;22.70;38.82;99890.69;10346943;28;20786;-66
2023/10/11 13:49:20;;;;;;;11.10;3.47;;;;;;;23.04;38.30;99847.50;10330308;28;20252;-66
2023/10/11 13:59:37;;;;;;;7.97;3.53;;;;;;;22.94;38.38;99868.44;10344198;28;20229;-66
2023/10/11 14:04:49;;;;;;;9.48;3.42;;;;;;;22.94;37.78;99871.19;10347986;28;20236;-66
2023/10/11 14:09:53;;;;;;;7.45;3.85;;;;;;;22.50;38.44;99878.59;10347202;28;20236;-66
2023/10/11 14:14:56;;;;;;;7.03;3.53;;;;;;;23.90;37.09;99803.47;10349144;28;20232;-66
2023/10/11 14:20:00;;;;;;;5.60;3.08;;;;;;;23.13;37.98;99823.28;10346886;28;20735;-66
2023/10/11 14:25:07;;;;;;;7.03;3.47;;;;;;;23.08;38.34;99832.25;10345436;28;20253;-66
2023/10/11 14:30:12;;;;;;;10.88;4.10;;;;;;;22.84;38.37;99814.66;10345815;28;20419;-66
2023/10/11 14:35:16;;;;;;;8.48;3.50;;;;;;;23.00;37.86;99785.53;10345239;28;20229;-66
2023/10/11 14:40:21;;;;;;;6.22;3.50;;;;;;;23.01;38.39;99819.91;10346786;28;20229;-66
2023/10/11 14:45:23;;;;;;;8.07;3.50;;;;;;;23.23;38.05;99782.34;10345035;28;20280;-68
2023/10/11 14:50:26;;;;;;;8.40;3.30;;;;;;;23.24;38.82;99807.75;10341763;28;20233;-67
2023/10/11 14:55:29;;;;;;;10.10;4.03;;;;;;;22.62;38.50;99820.28;10344819;28;20268;-68
2023/10/11 15:00:33;;;;;;;7.47;3.72;;;;;;;23.25;37.89;99768.44;10348704;28;20748;-68
2023/10/11 15:05:36;;;;;;;9.73;3.38;;;;;;;22.96;38.51;99768.03;10341867;28;20328;-68
2023/10/11 15:10:43;;;;;;;8.27;3.15;;;;;;;23.66;37.74;99781.34;10346992;28;20237;-68
2023/10/11 15:15:45;;;;;;;7.63;3.67;;;;;;;23.99;37.54;99769.88;10382406;28;20236;-66
2023/10/11 15:20:47;;;;;;;9.05;3.20;;;;;;;23.66;37.63;99781.34;10387899;28;20714;-66
2023/10/11 15:25:48;;;;;;;10.65;3.30;;;;;;;23.83;37.51;99790.09;10382202;28;20228;-66
2023/10/11 15:30:51;;;;;;;8.55;3.78;;;;;;;23.89;37.11;99733.56;10386144;28;20314;-65
2023/10/11 15:35:56;;;;;;;7.88;3.60;;;;;;;24.08;37.45;99750.19;10383394;28;20734;-65
2023/10/11 15:41:04;;;;;;;12.63;3.65;;;;;;;24.75;37.12;99723.50;10368804;28;20607;-65
2023/10/11 15:46:08;;;;;;;9.02;3.47;;;;;;;24.47;37.95;99741.34;10382624;28;20736;-65
2023/10/11 15:51:15;;;;;;;11.70;3.90;;;;;;;24.05;38.15;99767.13;10372024;28;20752;-65
2023/10/11 15:56:17;;;;;;;11.60;3.65;;;;;;;24.40;37.81;99760.78;10392243;28;22078;-65
2023/10/11 16:01:19;;;;;;;9.35;3.88;;;;;;;24.22;37.83;99736.78;10395383;28;20323;-65
2023/10/11 16:06:24;;;;;;;9.60;3.88;;;;;;;23.89;38.20;99758.94;10390420;28;20240;-65
2023/10/11 16:11:30;;;;;;;8.70;3.78;;;;;;;23.80;38.21;99771.50;10375644;28;20236;-67
2023/10/11 16:16:35;;;;;;;6.50;3.20;;;;;;;23.92;37.44;99757.56;10389335;28;20248;-67
2023/10/11 16:21:42;;;;;;;8.52;4.05;;;;;;;23.57;37.71;99745.56;10349312;28;20278;-66
2023/10/11 16:26:44;;;;;;;10.55;3.33;;;;;;;23.25;38.01;99744.69;10389236;28;20751;-66
2023/10/11 16:31:49;;;;;;;7.90;3.25;;;;;;;23.74;37.33;99724.25;10372661;28;20346;-66
2023/10/11 16:36:51;;;;;;;13.25;3.25;;;;;;;23.50;37.53;99756.75;10391833;28;20264;-67
2023/10/11 16:41:56;;;;;;;7.78;3.10;;;;;;;23.12;37.74;99741.66;10393659;28;20679;-67
2023/10/11 16:46:58;;;;;;;8.32;3.25;;;;;;;22.69;38.15;99766.34;10389126;28;20789;-64
2023/10/11 16:52:00;;;;;;;5.93;2.85;;;;;;;23.63;37.19;99712.53;10387844;28;20873;-64
2023/10/11 16:57:01;;;;;;;9.88;3.38;;;;;;;22.94;37.96;99730.13;10369273;28;20224;-65
2023/10/11 17:02:04;;;;;;;10.30;3.25;;;;;;;22.73;38.51;99745.63;10386485;28;20244;-64
2023/10/11 17:07:07;;;;;;;7.57;3.47;;;;;;;21.83;38.78;99734.69;10388511;28;20714;-64
2023/10/11 17:12:10;;;;;;;10.73;3.40;;;;;;;21.62;39.13;99707.31;10381381;28;20234;-64
2023/10/11 17:17:12;;;;;;;7.63;3.38;;;;;;;21.18;39.64;99699.28;10371729;28;20263;-64
2023/10/11 17:22:13;;;;;;;10.68;3.28;;;;;;;21.14;39.65;99747.94;10380875;28;20228;-64
2023/10/11 17:27:16;;;;;;;7.57;3.17;;;;;;;21.60;39.38;99695.88;10380167;28;20225;-64
2023/10/11 17:32:18;;;;;;;7.47;3.05;;;;;;;21.43;39.26;99706.88;10392515;28;20853;-64
2023/10/11 17:37:20;;;;;;;9.40;3.45;;;;;;;21.49;39.30;99685.97;10378842;28;20240;-64
2023/10/11 17:42:22;;;;;;;9.10;3.47;;;;;;;21.90;38.56;99675.38;10373860;28;20240;-64
2023/10/11 17:47:23;;;;;;;14.18;5.03;;;;;;;21.70;38.91;99676.06;10386210;28;20374;-65
2023/10/11 17:52:26;;;;;;;8.52;3.20;;;;;;;20.88;40.00;99727.81;10388732;28;20345;-66
2023/10/11 17:57:28;;;;;;;8.50;3.50;;;;;;;21.04;39.71;99694.25;10360225;28;20232;-64
2023/10/11 18:02:30;;;;;;;13.52;3.42;;;;;;;21.13;39.44;99701.97;10389999;28;20466;-64
2023/10/11 18:07:36;;;;;;;6.55;3.10;;;;;;;21.60;39.24;99663.19;10382216;28;20266;-65
2023/10/11 18:12:37;;;;;;;5.93;3.25;;;;;;;21.29;39.30;99711.91;10388658;28;20247;-65
2023/10/11 18:17:39;;;;;;;9.45;3.55;;;;;;;21.18;39.66;99685.69;10383105;28;20232;-64
2023/10/11 18:22:42;;;;;;;5.20;2.70;;;;;;;20.94;39.90;99731.41;10386580;28;20236;-65
2023/10/11 18:27:45;;;;;;;9.10;4.03;;;;;;;20.73;39.99;99717.53;10383986;28;20319;-64
2023/10/11 18:32:47;;;;;;;6.57;3.60;;;;;;;20.99;39.82;99677.06;10379424;28;20236;-68
2023/10/11 18:37:50;;;;;;;6.20;3.40;;;;;;;20.64;40.44;99719.06;10379423;28;20508;-65
2023/10/11 18:42:55;;;;;;;10.68;3.17;;;;;;;20.04;40.97;99748.69;10383919;28;20804;-66
2023/10/11 18:47:57;;;;;;;5.43;3.38;;;;;;;20.82;40.11;99693.50;10375407;28;20227;-68
2023/10/11 18:53:00;;;;;;;11.85;3.95;;;;;;;20.65;40.25;99720.72;10380915;28;20225;-66
2023/10/11 18:58:02;;;;;;;9.32;3.72;;;;;;;20.90;40.31;99709.31;10382574;28;20243;-65
2023/10/11 19:03:07;;;;;;;9.90;3.97;;;;;;;20.01;41.33;99734.75;10382498;28;20319;-65
2023/10/11 19:08:13;;;;;;;7.15;3.67;;;;;;;20.16;40.94;99751.31;10380815;28;20232;-68
2023/10/11 19:13:15;;;;;;;6.95;3.45;;;;;;;20.07;41.50;99736.47;10383610;28;20275;-69
2023/10/11 19:18:16;;;;;;;9.27;4.43;;;;;;;18.91;43.44;99713.28;10375557;28;20233;-73
2023/10/11 19:23:19;;;;;;;12.68;4.03;;;;;;;19.68;42.90;99657.72;10385490;28;20232;-70
2023/10/11 19:28:21;;;;;;;7.32;3.90;;;;;;;19.00;43.59;99723.53;10386901;28;20342;-67
2023/10/11 19:33:26;;;;;;;8.45;3.60;;;;;;;18.78;43.52;99744.25;10392230;28;20330;-68
2023/10/11 19:38:29;;;;;;;10.77;3.60;;;;;;;19.34;43.33;99668.53;10387932;28;20232;-68
2023/10/11 19:43:35;;;;;;;9.07;3.90;;;;;;;19.47;42.68;99717.06;10388272;28;20339;-69
2023/10/11 19:48:37;;;;;;;6.25;3.90;;;;;;;19.16;42.92;99750.94;10385802;28;20224;-69
2023/10/11 19:53:40;;;;;;;7.72;4.25;;;;;;;19.68;42.87;99691.09;10394498;28;20253;-69
2023/10/11 19:58:43;;;;;;;10.27;3.85;;;;;;;20.06;42.11;99703.06;10371243;28;20606;-69
2023/10/11 20:03:52;;;;;;;7.93;3.50;;;;;;;20.67;41.37;99721.28;10389040;28;20240;-67
2023/10/11 20:08:54;;;;;;;6.50;3.33;;;;;;;19.50;42.31;99780.84;10384655;28;20210;-68
2023/10/11 20:13:55;;;;;;;7.35;3.20;;;;;;;19.24;42.85;99777.69;10365608;28;20236;-70
2023/10/11 20:18:57;;;;;;;6.47;3.38;;;;;;;18.91;44.05;99768.38;10354516;28;20800;-68
2023/10/11 20:23:59;;;;;;;6.32;3.53;;;;;;;19.46;42.99;99766.16;10353003;28;20328;-69
2023/10/11 20:29:02;;;;;;;7.60;3.55;;;;;;;18.84;44.15;99737.84;10384162;28;20241;-69
2023/10/11 20:34:04;;;;;;;8.68;3.55;;;;;;;18.15;45.53;99776.41;10390611;28;20243;-69
2023/10/11 20:39:08;;;;;;;7.75;3.60;;;;;;;18.03;45.94;99746.63;10386179;28;20228;-70
2023/10/11 20:44:11;;;;;;;8.48;3.80;;;;;;;18.53;45.00;99763.50;10389695;28;20303;-70
2023/10/11 20:49:13;;;;;;;8.60;4.25;;;;;;;18.61;45.25;99723.28;10335734;28;20314;-72
2023/10/11 20:54:14;;;;;;;13.68;4.18;;;;;;;18.50;45.53;99704.34;10392461;28;20327;-67
2023/10/11 20:59:24;;;;;;;8.20;3.25;;;;;;;19.45;43.96;99707.50;10367087;28;20275;-67
2023/10/11 21:04:26;;;;;;;7.13;4.15;;;;;;;18.28;45.69;99788.91;10390711;28;20709;-67
2023/10/11 21:09:30;;;;;;;6.13;3.97;;;;;;;18.01;47.06;99724.41;10383038;28;20322;-67
2023/10/11 21:14:34;;;;;;;8.98;4.13;;;;;;;18.36;46.45;99710.03;10387017;28;20331;-67
2023/10/11 21:19:35;;;;;;;10.70;3.95;;;;;;;18.19;46.53;99682.03;10382693;28;20243;-67
2023/10/11 21:24:37;;;;;;;8.73;4.20;;;;;;;17.41;48.30;99694.78;10383652;28;20905;-67
2023/10/11 21:29:39;;;;;;;5.97;3.40;;;;;;;17.36;48.54;99671.16;10386863;28;20237;-67
2023/10/11 21:34:41;;;;;;;7.57;4.10;;;;;;;17.47;48.55;99655.97;10386717;28;20324;-66
2023/10/11 21:39:46;;;;;;;7.97;3.63;;;;;;;17.87;47.77;99641.78;10383717;28;20239;-67
2023/10/11 21:44:48;;;;;;;9.65;4.43;;;;;;;17.86;47.93;99637.44;10384265;28;20228;-67
2023/10/11 21:49:50;;;;;;;9.15;3.53;;;;;;;18.13;47.58;99626.91;10353170;28;20240;-67
2023/10/11 21:54:51;;;;;;;9.82;4.00;;;;;;;17.57;48.17;99682.47;10369994;28;20236;-66
2023/10/11 21:59:55;;;;;;;6.22;3.67;;;;;;;17.38;48.30;99708.75;10378457;28;20408;-67
2023/10/11 22:04:59;;;;;;;9.77;3.88;;;;;;;17.82;47.81;99664.16;10385154;28;20233;-66
2023/10/11 22:10:09;;;;;;;6.88;3.50;;;;;;;17.92;47.78;99666.25;10380594;28;20615;-66
2023/10/11 22:15:12;;;;;;;7.13;3.75;;;;;;;17.60;47.89;99692.81;10366044;28;20243;-66
2023/10/11 22:20:17;;;;;;;8.13;3.75;;;;;;;17.53;47.53;99774.09;10383460;28;20233;-66
2023/10/11 22:25:24;;;;;;;7.55;3.33;;;;;;;17.87;47.39;99720.28;10382184;28;20682;-67
2023/10/11 22:30:27;;;;;;;7.45;4.13;;;;;;;17.04;49.13;99721.94;10384561;28;20229;-66
2023/10/11 22:35:30;;;;;;;6.53;3.38;;;;;;;17.12;49.06;99732.44;10377788;28;20251;-67
2023/10/11 22:40:32;;;;;;;9.43;4.03;;;;;;;17.28;48.83;99688.50;10389104;28;20805;-67
2023/10/11 22:45:38;;;;;;;12.98;3.80;;;;;;;17.78;48.06;99665.69;10379612;28;20774;-66
2023/10/11 22:50:41;;;;;;;6.25;3.28;;;;;;;17.59;48.08;99697.38;10388112;28;20237;-66
2023/10/11 22:55:43;;;;;;;6.90;3.47;;;;;;;18.61;46.30;99698.09;10372919;28;20323;-66
2023/10/11 23:00:45;;;;;;;10.45;3.95;;;;;;;17.21;48.31;99800.53;10385572;28;20236;-66
2023/10/11 23:05:46;;;;;;;6.80;3.63;;;;;;;17.78;47.63;99732.50;10379754;28;20255;-66
2023/10/11 23:10:52;;;;;;;7.97;4.60;;;;;;;18.09;47.06;99705.09;10382568;28;20721;-67
2023/10/11 23:15:54;;;;;;;7.05;4.00;;;;;;;17.88;46.80;99776.06;10378326;28;20237;-66
2023/10/11 23:21:02;;;;;;;7.15;3.88;;;;;;;17.52;47.07;99821.94;10384156;28;20233;-66
2023/10/11 23:26:06;;;;;;;8.30;4.45;;;;;;;16.85;48.60;99799.47;10377623;28;20283;-66
2023/10/11 23:31:09;;;;;;;10.30;4.25;;;;;;;18.38;46.07;99743.13;10367080;28;20244;-66
2023/10/11 23:36:12;;;;;;;13.23;4.13;;;;;;;17.15;48.14;99794.97;10377559;28;20232;-66
2023/10/11 23:41:19;;;;;;;11.75;4.45;;;;;;;17.62;47.75;99731.28;10387324;28;20228;-66
2023/10/11 23:46:25;;;;;;;10.00;3.70;;;;;;;18.17;46.54;99752.66;10377674;28;20751;-66
2023/10/11 23:51:29;;;;;;;13.13;3.92;;;;;;;18.21;46.62;99734.06;10384119;28;20282;-66
2023/10/11 23:56:30;;;;;;;7.07;3.70;;;;;;;17.98;46.87;99779.00;10378392;28;20330;-66
